METAR Data
IDs: Format: Raw Decoded Include TAF

Data at: 0249 UTC 31 May 2023

METAR for:KSLB (Storm Lake Muni, IA, US)
Text:KSLB 310235Z AUTO 15015KT 10SM CLR 21/15 A2986 RMK AO2
Temperature: 21.0°C ( 70°F)
Dewpoint: 15.0°C ( 59°F) [RH = 69%]
Pressure (altimeter):29.86 inches Hg (1011.3 mb)
Winds:from the SSE (150 degrees) at 17 MPH (15 knots; 7.7 m/s)
Visibility:10 or more sm (16+ km)
Ceiling:at least 12,000 feet AGL
Clouds:sky clear below 12,000 feet AGL
QC Flag:automated observation with no human augmentation